Time;durP1;ratioP1;P1;durP2;ratioP2;P2;SDS_P1;SDS_P2;PMS_P1;PMS_P2;Temp;Humidity;BMP_temperature;BMP_pressure;BME280_temperature;BME280_humidity;BME280_pressure;Samples;Min_cycle;Max_cycle;Signal;HPM_P1;HPM_P2
2023/12/26 00:19:37;;;;;;;6.25;4.15;;;;;;;21.20;56.93;100075.22;41664140;28;20061;-66
2023/12/26 00:39:38;;;;;;;5.28;3.70;;;;;;;21.13;57.39;100081.09;41665766;28;20120;-66
2023/12/26 00:59:38;;;;;;;4.15;3.55;;;;;;;21.11;57.23;100074.16;41662123;28;20045;-66
2023/12/26 01:19:39;;;;;;;5.15;3.38;;;;;;;21.10;57.28;100061.97;41669569;28;20500;-65
2023/12/26 01:39:41;;;;;;;4.25;3.28;;;;;;;21.06;57.04;100075.50;41690774;28;20159;-66
2023/12/26 01:59:42;;;;;;;4.82;3.60;;;;;;;21.01;57.14;100073.25;41689226;28;20056;-65
2023/12/26 02:19:43;;;;;;;5.35;3.60;;;;;;;20.97;56.90;100057.81;41682294;28;20045;-66
2023/12/26 02:39:44;;;;;;;4.68;3.60;;;;;;;20.94;57.14;100059.72;41681099;28;20045;-65
2023/12/26 02:59:45;;;;;;;3.58;3.05;;;;;;;20.93;57.08;100058.09;41669527;28;20065;-66
2023/12/26 03:19:46;;;;;;;4.13;3.25;;;;;;;20.86;57.31;100056.06;41671767;28;20392;-65
2023/12/26 03:39:48;;;;;;;4.97;3.50;;;;;;;20.85;57.26;100051.75;41646708;28;20622;-64
2023/12/26 03:59:48;;;;;;;3.88;3.00;;;;;;;20.82;57.14;100015.19;41661888;28;20060;-65
2023/12/26 04:19:48;;;;;;;5.05;3.28;;;;;;;20.80;57.16;100012.69;41667762;28;20417;-65
2023/12/26 04:39:49;;;;;;;5.97;3.53;;;;;;;20.77;56.66;100013.75;41656875;28;20050;-64
2023/12/26 04:59:50;;;;;;;4.05;3.20;;;;;;;20.73;56.85;100033.38;41666103;28;20034;-66
2023/12/26 05:19:51;;;;;;;3.70;2.97;;;;;;;21.05;55.76;100045.69;41692415;28;20049;-65
2023/12/26 05:39:51;;;;;;;8.70;3.50;;;;;;;21.24;53.99;100025.75;41664695;28;20504;-65
2023/12/26 05:59:53;;;;;;;4.82;3.30;;;;;;;21.48;54.11;100025.47;41658947;28;20049;-65
2023/12/26 06:19:53;;;;;;;4.53;3.30;;;;;;;21.58;53.98;100022.94;41670604;28;20519;-65
2023/12/26 06:39:54;;;;;;;12.13;3.28;;;;;;;21.70;53.89;100019.28;41666306;28;20044;-65
2023/12/26 06:59:54;;;;;;;5.82;3.47;;;;;;;21.78;55.17;100036.22;41658713;28;20049;-67
2023/12/26 07:19:55;;;;;;;8.40;3.72;;;;;;;21.74;55.34;100057.56;41648347;28;20049;-68
2023/12/26 07:39:55;;;;;;;6.72;3.80;;;;;;;21.74;54.72;100086.56;41643779;28;20037;-68
2023/12/26 07:59:56;;;;;;;8.52;4.65;;;;;;;21.70;54.73;100089.56;41615739;28;20048;-69
2023/12/26 08:19:56;;;;;;;11.55;5.45;;;;;;;18.35;51.70;100106.25;41577665;28;20053;-68
2023/12/26 08:39:56;;;;;;;21.85;8.23;;;;;;;21.27;48.50;100076.34;41644953;28;20049;-62
2023/12/26 08:59:59;;;;;;;20.60;8.48;;;;;;;21.56;49.55;100074.91;41710234;28;20047;-63
2023/12/26 09:19:59;;;;;;;17.15;8.00;;;;;;;21.65;50.07;100110.22;41712674;28;20048;-62
2023/12/26 09:40:00;;;;;;;13.82;7.28;;;;;;;14.31;47.99;100146.19;41705467;28;20063;-64
2023/12/26 10:00:00;;;;;;;13.27;5.70;;;;;;;21.26;44.23;100137.06;41641178;28;20527;-63
2023/12/26 10:20:03;;;;;;;11.52;5.80;;;;;;;21.33;46.93;100146.13;41647630;28;20560;-64
2023/12/26 10:40:05;;;;;;;15.43;5.38;;;;;;;21.71;48.31;100088.63;41656583;28;20075;-64
2023/12/26 11:00:05;;;;;;;9.82;5.80;;;;;;;21.71;49.81;100094.69;41664112;28;20074;-64
2023/12/26 11:20:06;;;;;;;14.90;6.78;;;;;;;22.15;51.47;100077.88;41662545;28;20041;-64
2023/12/26 11:40:06;;;;;;;19.58;7.93;;;;;;;22.21;53.46;100062.34;41643802;28;20056;-63
2023/12/26 12:00:07;;;;;;;20.55;7.85;;;;;;;22.78;54.70;100058.34;41625742;28;20086;-63
2023/12/26 12:20:17;;;;;;;11.45;6.82;;;;;;;22.72;50.81;100075.56;41628824;28;20048;-63
2023/12/26 12:40:17;;;;;;;14.23;6.43;;;;;;;22.30;48.17;100089.75;41616876;28;21523;-64
2023/12/26 13:00:18;;;;;;;12.13;5.70;;;;;;;22.49;46.18;100078.41;41644766;28;20037;-70
2023/12/26 13:20:18;;;;;;;11.52;5.40;;;;;;;22.61;48.77;100086.25;41684663;28;20049;-71
2023/12/26 13:40:18;;;;;;;13.30;5.00;;;;;;;22.52;49.96;100130.94;41706514;28;20068;-70
2023/12/26 14:00:19;;;;;;;7.13;4.53;;;;;;;22.38;50.04;100141.84;41697999;28;20137;-66
2023/12/26 14:20:20;;;;;;;6.65;4.40;;;;;;;22.33;50.49;100173.88;41676565;28;20599;-68
2023/12/26 14:40:21;;;;;;;7.78;4.20;;;;;;;22.23;51.25;100196.72;41672961;28;20076;-66
2023/12/26 15:00:21;;;;;;;7.00;3.90;;;;;;;22.26;51.82;100216.72;41685724;28;20710;-67
2023/12/26 15:20:22;;;;;;;9.60;3.13;;;;;;;22.46;52.18;100228.25;41660730;28;20033;-65
2023/12/26 15:40:22;;;;;;;7.35;3.63;;;;;;;22.42;51.51;100261.97;41681046;28;20052;-65
2023/12/26 16:00:22;;;;;;;7.38;3.35;;;;;;;22.34;52.31;100259.94;41667926;28;20558;-65
2023/12/26 16:20:24;;;;;;;6.97;3.55;;;;;;;22.32;53.24;100303.25;41666120;28;22347;-66
2023/12/26 16:40:26;;;;;;;10.45;3.85;;;;;;;22.32;54.00;100303.25;41656140;28;20041;-71
2023/12/26 17:00:26;;;;;;;6.25;4.03;;;;;;;22.17;53.70;100294.84;41693079;28;20065;-68
2023/12/26 17:20:27;;;;;;;6.78;3.95;;;;;;;22.12;54.24;100318.94;41708568;28;20128;-68
2023/12/26 17:40:27;;;;;;;6.22;3.63;;;;;;;21.95;54.27;100367.78;41687603;28;20494;-68
2023/12/26 18:00:27;;;;;;;6.80;4.10;;;;;;;21.83;54.82;100374.88;41660486;28;20163;-65
2023/12/26 18:20:28;;;;;;;5.93;4.05;;;;;;;21.74;55.07;100397.53;41664459;28;20045;-65
2023/12/26 18:40:29;;;;;;;7.82;4.00;;;;;;;21.78;55.14;100402.56;41642721;28;20142;-65
2023/12/26 19:00:30;;;;;;;7.30;3.47;;;;;;;21.66;55.28;100433.38;41681215;28;20171;-66
2023/12/26 19:20:32;;;;;;;3.88;3.10;;;;;;;21.61;55.38;100444.25;41665558;28;20037;-65
2023/12/26 19:40:32;;;;;;;3.97;3.00;;;;;;;21.55;54.77;100440.28;41661911;28;20033;-66
2023/12/26 20:00:34;;;;;;;4.18;3.05;;;;;;;21.52;54.84;100471.28;41659906;28;20053;-68
2023/12/26 20:20:35;;;;;;;3.53;2.60;;;;;;;21.55;55.05;100486.88;41636293;28;20065;-67
2023/12/26 20:40:35;;;;;;;5.32;3.80;;;;;;;21.41;55.22;100504.59;41660020;28;20034;-67
2023/12/26 21:00:36;;;;;;;10.35;4.90;;;;;;;21.38;55.93;100546.13;41646918;28;20048;-68
2023/12/26 21:20:38;;;;;;;10.75;5.60;;;;;;;21.41;55.71;100536.19;41639357;28;20036;-68
2023/12/26 21:40:38;;;;;;;9.80;4.78;;;;;;;21.18;54.57;100537.06;41658598;28;20033;-72
2023/12/26 22:00:39;;;;;;;7.88;5.30;;;;;;;21.16;55.22;100563.53;41705764;28;20529;-73
2023/12/26 22:20:39;;;;;;;7.00;4.88;;;;;;;21.11;55.69;100577.03;41700094;28;20162;-72
2023/12/26 22:40:40;;;;;;;7.82;5.53;;;;;;;21.09;55.50;100591.25;41702283;28;20041;-72
2023/12/26 23:00:40;;;;;;;6.47;4.95;;;;;;;21.04;55.57;100594.22;41706367;28;20053;-72
2023/12/26 23:20:43;;;;;;;7.28;5.10;;;;;;;21.01;55.09;100620.81;41699317;28;20491;-73
2023/12/26 23:40:43;;;;;;;5.35;4.20;;;;;;;20.97;54.94;100624.63;41689256;28;20097;-72
